createdAt,value
2022-10-13T00:01:29.729Z,11.64
2022-10-13T00:03:51.777Z,11.66
2022-10-13T00:06:21.225Z,11.67
2022-10-13T00:08:43.438Z,11.68
2022-10-13T00:11:26.950Z,11.70
2022-10-13T00:13:50.423Z,11.68
2022-10-13T00:16:15.500Z,11.69
2022-10-13T00:18:38.461Z,11.68
2022-10-13T00:21:00.280Z,11.68
2022-10-13T00:23:22.282Z,11.68
2022-10-13T00:25:47.887Z,11.70
2022-10-13T00:28:10.418Z,11.71
2022-10-13T00:30:36.039Z,11.72
2022-10-13T00:32:57.939Z,11.73
2022-10-13T00:35:19.768Z,11.76
2022-10-13T00:37:41.543Z,11.77
2022-10-13T00:40:04.334Z,11.79
2022-10-13T00:42:27.138Z,11.78
2022-10-13T00:45:00.255Z,11.81
2022-10-13T00:47:22.351Z,11.82
2022-10-13T00:49:44.508Z,11.83
2022-10-13T00:52:06.459Z,11.85
2022-10-13T00:54:29.710Z,11.89
2022-10-13T00:56:53.978Z,11.92
2022-10-13T00:59:23.506Z,11.95
2022-10-13T01:01:49.237Z,11.95
2022-10-13T01:04:11.658Z,11.98
2022-10-13T01:06:34.385Z,12.01
2022-10-13T01:08:56.226Z,12.02
2022-10-13T01:11:49.929Z,12.04
2022-10-13T01:14:31.612Z,12.05
2022-10-13T01:17:21.098Z,12.06
2022-10-13T01:20:28.915Z,12.07
2022-10-13T01:23:33.354Z,12.05
2022-10-13T01:26:23.140Z,12.07
2022-10-13T01:29:05.402Z,12.10
2022-10-13T01:31:46.070Z,12.11
2022-10-13T01:34:41.493Z,12.13
2022-10-13T01:37:53.378Z,12.15
2022-10-13T01:40:37.186Z,12.14
2022-10-13T01:43:10.793Z,12.14
2022-10-13T01:45:51.375Z,12.15
2022-10-13T01:48:15.822Z,12.18
2022-10-13T01:50:39.472Z,12.18
2022-10-13T01:53:05.284Z,12.19
2022-10-13T01:55:28.978Z,12.19
2022-10-13T01:57:50.739Z,12.20
2022-10-13T02:00:21.113Z,12.21
2022-10-13T02:03:31.211Z,12.24
2022-10-13T02:06:10.530Z,12.25
2022-10-13T02:08:46.335Z,12.27
2022-10-13T02:11:19.721Z,12.27
2022-10-13T02:14:03.464Z,12.28
2022-10-13T02:16:31.924Z,12.30
2022-10-13T02:18:57.004Z,12.32
2022-10-13T02:21:19.262Z,12.34
2022-10-13T02:23:43.376Z,12.34
2022-10-13T02:26:05.662Z,12.35
2022-10-13T02:28:29.247Z,12.36
2022-10-13T02:30:51.783Z,12.39
2022-10-13T02:33:15.422Z,12.41
2022-10-13T02:35:37.395Z,12.40
2022-10-13T02:37:59.759Z,12.43
2022-10-13T02:40:21.568Z,12.45
2022-10-13T02:42:44.010Z,12.47
2022-10-13T02:45:07.058Z,12.49
2022-10-13T02:47:28.961Z,12.51
2022-10-13T02:49:50.714Z,12.52
2022-10-13T02:52:12.555Z,12.53
2022-10-13T02:54:36.869Z,12.54
2022-10-13T02:56:58.730Z,12.55
2022-10-13T02:59:20.464Z,12.56
2022-10-13T03:01:44.309Z,12.57
2022-10-13T03:04:06.097Z,12.57
2022-10-13T03:06:27.815Z,12.56
2022-10-13T03:08:49.596Z,12.57
2022-10-13T03:11:11.409Z,12.56
2022-10-13T03:13:33.551Z,12.57
2022-10-13T03:16:01.232Z,12.59
2022-10-13T03:18:23.065Z,12.59
2022-10-13T03:20:44.901Z,12.61
2022-10-13T03:23:07.105Z,12.61
2022-10-13T03:25:29.086Z,12.60
2022-10-13T03:27:51.855Z,12.59
2022-10-13T03:30:14.007Z,12.59
2022-10-13T03:32:35.734Z,12.57
2022-10-13T03:34:57.498Z,12.58
2022-10-13T03:37:19.295Z,12.58
2022-10-13T03:39:41.226Z,12.58
2022-10-13T03:42:03.575Z,12.57
2022-10-13T03:44:25.736Z,12.57
2022-10-13T03:46:47.542Z,12.56
2022-10-13T03:49:11.504Z,12.55
2022-10-13T03:51:33.652Z,12.54
2022-10-13T03:53:55.450Z,12.52
2022-10-13T03:56:25.393Z,12.54
2022-10-13T03:58:47.362Z,12.52
2022-10-13T04:01:10.548Z,12.52
2022-10-13T04:03:35.138Z,12.52
2022-10-13T04:06:05.306Z,12.51
2022-10-13T04:08:27.868Z,12.49
2022-10-13T04:11:02.437Z,12.50
2022-10-13T04:13:24.278Z,12.50
2022-10-13T04:15:46.794Z,12.50
2022-10-13T04:18:10.729Z,12.48
2022-10-13T04:20:36.723Z,12.50
2022-10-13T04:22:58.516Z,12.50
2022-10-13T04:25:20.262Z,12.49
2022-10-13T04:27:42.109Z,12.49
2022-10-13T04:30:06.743Z,12.48
2022-10-13T04:32:28.484Z,12.47
2022-10-13T04:34:50.557Z,12.48
2022-10-13T04:37:12.613Z,12.48
2022-10-13T04:39:34.570Z,12.49
2022-10-13T04:41:56.375Z,12.50
2022-10-13T04:44:18.173Z,12.49
2022-10-13T04:46:39.984Z,12.49
2022-10-13T04:49:01.909Z,12.49
2022-10-13T04:51:27.346Z,12.50
2022-10-13T04:53:55.005Z,12.50
2022-10-13T04:56:18.263Z,12.51
2022-10-13T04:58:41.778Z,12.52
2022-10-13T05:01:07.846Z,12.53
2022-10-13T05:03:29.682Z,12.53
2022-10-13T05:05:52.724Z,12.53
2022-10-13T05:08:14.531Z,12.51
2022-10-13T05:10:36.419Z,12.51
2022-10-13T05:12:58.209Z,12.51
2022-10-13T05:15:20.196Z,12.52
2022-10-13T05:17:41.948Z,12.54
2022-10-13T05:20:04.468Z,12.56
2022-10-13T05:22:28.403Z,12.55
2022-10-13T05:24:50.217Z,12.54
2022-10-13T05:27:13.831Z,12.52
2022-10-13T05:29:37.066Z,12.51
2022-10-13T05:31:58.871Z,12.51
2022-10-13T05:34:20.643Z,12.50
2022-10-13T05:36:42.563Z,12.48
2022-10-13T05:39:09.654Z,12.48
2022-10-13T05:41:32.025Z,12.48
2022-10-13T05:43:58.998Z,12.49
2022-10-13T05:46:20.924Z,12.47
2022-10-13T05:48:42.907Z,12.45
2022-10-13T05:51:16.579Z,12.44
2022-10-13T05:53:50.251Z,12.45
2022-10-13T05:56:22.529Z,12.44
2022-10-13T05:58:50.458Z,12.43
2022-10-13T06:01:19.469Z,12.43
2022-10-13T06:03:44.946Z,12.42
2022-10-13T06:06:07.302Z,12.45
2022-10-13T06:08:30.252Z,12.45
2022-10-13T06:10:52.161Z,12.45
2022-10-13T06:13:14.751Z,12.47
2022-10-13T06:15:36.803Z,12.49
2022-10-13T06:17:59.115Z,12.50
2022-10-13T06:20:20.882Z,12.51
2022-10-13T06:22:42.667Z,12.53
2022-10-13T06:25:07.207Z,12.55
2022-10-13T06:27:29.272Z,12.56
2022-10-13T06:29:52.334Z,12.57
2022-10-13T06:32:14.191Z,12.62
2022-10-13T06:34:36.021Z,12.66
2022-10-13T06:36:58.182Z,12.71
2022-10-13T06:39:20.175Z,12.77
2022-10-13T06:41:42.045Z,12.80
2022-10-13T06:44:04.142Z,12.85
2022-10-13T06:46:26.102Z,12.89
2022-10-13T06:48:52.244Z,12.93
2022-10-13T06:51:15.381Z,12.95
2022-10-13T06:53:37.881Z,13.02
2022-10-13T06:56:02.002Z,13.07
2022-10-13T06:58:23.817Z,13.11
2022-10-13T07:00:45.665Z,13.15
2022-10-13T07:03:08.583Z,13.20
2022-10-13T07:05:31.395Z,13.22
2022-10-13T07:07:56.526Z,13.26
2022-10-13T07:10:18.537Z,13.27
2022-10-13T07:12:41.040Z,13.30
2022-10-13T07:15:03.126Z,13.33
2022-10-13T07:17:25.073Z,13.35
2022-10-13T07:19:48.676Z,13.38
2022-10-13T07:22:10.508Z,13.40
2022-10-13T07:24:32.309Z,13.41
2022-10-13T07:26:54.080Z,13.42
2022-10-13T07:29:16.184Z,13.44
2022-10-13T07:31:38.135Z,13.47
2022-10-13T07:34:00.669Z,13.47
2022-10-13T07:36:23.633Z,13.49
2022-10-13T07:38:46.923Z,13.52
2022-10-13T07:41:11.948Z,13.54
2022-10-13T07:43:33.899Z,13.55
2022-10-13T07:46:01.838Z,13.58
2022-10-13T07:48:23.768Z,13.60
2022-10-13T07:50:45.736Z,13.60
2022-10-13T07:53:07.553Z,13.62
2022-10-13T07:55:29.466Z,13.63
2022-10-13T07:57:51.259Z,13.63
2022-10-13T08:00:13.586Z,13.63
2022-10-13T08:02:35.981Z,13.65
2022-10-13T08:04:59.178Z,13.69
2022-10-13T08:07:21.197Z,13.74
2022-10-13T08:09:44.980Z,13.79
2022-10-13T08:12:06.958Z,13.83
2022-10-13T08:14:30.848Z,13.85
2022-10-13T08:16:53.729Z,13.88
2022-10-13T08:19:22.157Z,13.90
2022-10-13T08:21:58.274Z,13.90
2022-10-13T08:24:24.405Z,13.91
2022-10-13T08:26:47.139Z,13.94
2022-10-13T08:29:21.387Z,13.97
2022-10-13T08:31:45.255Z,14.02
2022-10-13T08:34:08.239Z,14.06
2022-10-13T08:36:30.167Z,14.11
2022-10-13T08:38:53.511Z,14.18
2022-10-13T08:41:21.502Z,14.24
2022-10-13T08:44:47.535Z,14.33
2022-10-13T08:47:07.043Z,14.47
2022-10-13T08:49:30.907Z,14.55
2022-10-13T08:51:54.044Z,14.68
2022-10-13T08:54:20.702Z,14.81
2022-10-13T08:56:43.125Z,14.93
2022-10-13T08:59:06.802Z,15.05
2022-10-13T09:01:37.358Z,15.10
2022-10-13T09:04:26.903Z,15.16
2022-10-13T09:06:56.845Z,15.24
2022-10-13T09:09:19.083Z,15.26
2022-10-13T09:11:45.307Z,15.28
2022-10-13T09:14:20.588Z,15.35
2022-10-13T09:16:44.985Z,15.43
2022-10-13T09:19:20.419Z,15.49
2022-10-13T09:21:42.439Z,15.52
2022-10-13T09:24:15.257Z,15.57
2022-10-13T09:26:38.953Z,15.59
2022-10-13T09:29:10.504Z,15.66
2022-10-13T09:31:33.849Z,15.66
2022-10-13T09:34:03.352Z,15.67
2022-10-13T09:36:25.862Z,15.64
2022-10-13T09:39:16.381Z,15.65
2022-10-13T09:41:42.495Z,15.63
2022-10-13T09:44:16.703Z,15.61
2022-10-13T09:46:54.942Z,15.61
2022-10-13T09:49:37.674Z,15.59
2022-10-13T09:52:19.079Z,15.56
2022-10-13T09:54:46.957Z,15.55
2022-10-13T09:57:48.391Z,15.57
2022-10-13T10:00:28.697Z,15.54
2022-10-13T10:03:18.634Z,15.54
2022-10-13T10:05:46.329Z,15.52
2022-10-13T10:09:08.376Z,15.50
2022-10-13T10:11:49.277Z,15.45
2022-10-13T10:14:31.745Z,15.43
2022-10-13T10:17:15.127Z,15.41
2022-10-13T10:19:42.923Z,15.37
2022-10-13T10:22:26.267Z,15.35
2022-10-13T10:25:00.262Z,15.36
2022-10-13T10:27:38.919Z,15.38
2022-10-13T10:30:17.824Z,15.40
2022-10-13T10:33:11.113Z,15.44
2022-10-13T10:36:07.339Z,15.43
2022-10-13T10:38:45.650Z,15.41
2022-10-13T10:41:36.668Z,15.39
2022-10-13T10:44:10.966Z,15.36
2022-10-13T10:46:39.809Z,15.30
2022-10-13T10:49:19.914Z,15.27
2022-10-13T10:51:43.759Z,15.23
2022-10-13T10:54:30.327Z,15.22
2022-10-13T10:57:08.492Z,15.20
2022-10-13T10:59:49.981Z,15.20
2022-10-13T11:02:37.912Z,15.18
2022-10-13T11:05:05.286Z,15.15
2022-10-13T11:07:28.367Z,15.13
2022-10-13T11:09:50.688Z,15.14
2022-10-13T11:12:23.015Z,15.14
2022-10-13T11:14:54.393Z,15.09
2022-10-13T11:17:29.498Z,15.08
2022-10-13T11:19:51.515Z,15.06
2022-10-13T11:22:21.165Z,15.07
2022-10-13T11:24:47.834Z,15.05
2022-10-13T11:27:12.328Z,15.05
2022-10-13T11:30:01.796Z,15.08
2022-10-13T11:32:26.879Z,15.10
2022-10-13T11:35:08.018Z,15.14
2022-10-13T11:38:07.741Z,15.19
2022-10-13T11:40:58.231Z,15.20
2022-10-13T11:43:47.248Z,15.23
2022-10-13T11:46:24.724Z,15.25
2022-10-13T11:49:17.487Z,15.27
2022-10-13T11:52:13.050Z,15.29
2022-10-13T11:54:53.690Z,15.30
2022-10-13T11:57:25.350Z,15.33
2022-10-13T11:59:51.474Z,15.34
2022-10-13T12:02:19.399Z,15.34
2022-10-13T12:04:46.550Z,15.32
2022-10-13T12:07:14.372Z,15.27
2022-10-13T12:09:53.861Z,15.24
2022-10-13T12:12:20.914Z,15.23
2022-10-13T12:14:47.743Z,15.23
2022-10-13T12:17:27.011Z,15.25
2022-10-13T12:19:50.150Z,15.25
2022-10-13T12:22:13.913Z,15.26
2022-10-13T12:24:37.152Z,15.27
2022-10-13T12:27:09.747Z,15.29
2022-10-13T12:29:37.056Z,15.29
2022-10-13T12:31:59.843Z,15.29
2022-10-13T12:34:27.756Z,15.28
2022-10-13T12:37:01.525Z,15.24
2022-10-13T12:39:25.669Z,15.20
2022-10-13T12:41:49.408Z,15.19
2022-10-13T12:44:20.955Z,15.22
2022-10-13T12:46:59.079Z,15.21
2022-10-13T12:49:24.665Z,15.21
2022-10-13T12:51:51.218Z,15.19
2022-10-13T12:54:24.451Z,15.16
2022-10-13T12:56:46.903Z,15.14
2022-10-13T12:59:17.904Z,15.15
2022-10-13T13:01:42.735Z,15.15
2022-10-13T13:04:23.129Z,15.11
2022-10-13T13:07:04.732Z,15.08
2022-10-13T13:09:36.954Z,15.04
2022-10-13T13:12:06.879Z,15.03
2022-10-13T13:14:49.399Z,14.99
2022-10-13T13:17:23.514Z,14.97
2022-10-13T13:19:57.421Z,14.93
2022-10-13T13:22:20.194Z,14.90
2022-10-13T13:24:42.705Z,14.87
2022-10-13T13:27:36.406Z,14.83
2022-10-13T13:29:58.618Z,14.78
2022-10-13T13:32:24.218Z,14.74
2022-10-13T13:34:47.053Z,14.71
2022-10-13T13:37:18.305Z,14.71
2022-10-13T13:39:41.184Z,14.71
2022-10-13T13:42:03.361Z,14.72
2022-10-13T13:44:25.255Z,14.74
2022-10-13T13:46:47.125Z,14.80
2022-10-13T13:49:11.590Z,14.86
2022-10-13T13:51:33.615Z,14.88
2022-10-13T13:53:55.783Z,14.94
2022-10-13T13:56:20.583Z,14.98
2022-10-13T13:58:43.639Z,15.03
2022-10-13T14:01:08.426Z,15.03
2022-10-13T14:03:30.268Z,15.02
2022-10-13T14:05:52.203Z,15.01
2022-10-13T14:08:14.042Z,15.03
2022-10-13T14:10:35.868Z,15.05
2022-10-13T14:12:57.711Z,15.03
2022-10-13T14:15:23.383Z,15.02
2022-10-13T14:17:47.645Z,14.99
2022-10-13T14:20:10.750Z,14.93
2022-10-13T14:22:33.078Z,14.92
2022-10-13T14:24:55.128Z,14.90
2022-10-13T14:27:17.077Z,14.87
2022-10-13T14:29:39.046Z,14.87
2022-10-13T14:32:01.112Z,14.87
2022-10-13T14:34:23.077Z,14.88
2022-10-13T14:36:44.872Z,14.92
2022-10-13T14:39:07.092Z,14.95
2022-10-13T14:41:29.239Z,14.97
2022-10-13T14:43:55.703Z,14.99
2022-10-13T14:46:17.491Z,14.99
2022-10-13T14:48:39.541Z,14.99
2022-10-13T14:51:10.667Z,14.99
2022-10-13T14:53:35.533Z,14.97
2022-10-13T14:55:57.365Z,14.96
2022-10-13T14:58:19.307Z,14.97
2022-10-13T15:00:43.423Z,14.96
2022-10-13T15:03:05.170Z,14.94
2022-10-13T15:05:26.999Z,14.94
2022-10-13T15:07:48.864Z,14.96
2022-10-13T15:10:10.776Z,14.96
2022-10-13T15:12:32.885Z,14.95
2022-10-13T15:14:54.782Z,14.93
2022-10-13T15:17:16.657Z,14.94
2022-10-13T15:19:38.423Z,14.92
2022-10-13T15:22:00.861Z,14.92
2022-10-13T15:24:22.803Z,14.93
2022-10-13T15:26:47.207Z,14.91
2022-10-13T15:29:09.524Z,14.92
2022-10-13T15:31:31.468Z,14.95
2022-10-13T15:33:54.156Z,14.97
2022-10-13T15:36:16.242Z,14.98
2022-10-13T15:38:38.249Z,14.98
2022-10-13T15:41:02.436Z,14.97
2022-10-13T15:43:24.207Z,14.96
2022-10-13T15:45:57.091Z,14.97
2022-10-13T15:48:19.064Z,14.96
2022-10-13T15:50:41.228Z,14.96
2022-10-13T15:53:03.279Z,14.94
2022-10-13T15:55:25.502Z,14.96
2022-10-13T15:57:47.498Z,14.94
2022-10-13T16:00:14.219Z,14.94
2022-10-13T16:02:36.419Z,14.92
2022-10-13T16:05:01.630Z,14.90
2022-10-13T16:07:23.542Z,14.89
2022-10-13T16:09:45.758Z,14.86
2022-10-13T16:12:07.720Z,14.86
2022-10-13T16:14:29.542Z,14.83
2022-10-13T16:16:53.417Z,14.82
2022-10-13T16:19:15.283Z,14.83
2022-10-13T16:21:37.837Z,14.82
2022-10-13T16:24:00.076Z,14.85
2022-10-13T16:26:22.305Z,14.83
2022-10-13T16:28:45.663Z,14.82
2022-10-13T16:31:14.472Z,14.82
2022-10-13T16:33:37.639Z,14.81
2022-10-13T16:36:10.493Z,14.82
2022-10-13T16:38:35.049Z,14.79
2022-10-13T16:40:56.966Z,14.78
2022-10-13T16:43:18.779Z,14.77
2022-10-13T16:46:02.946Z,14.75
2022-10-13T16:48:27.853Z,14.74
2022-10-13T16:50:50.882Z,14.73
2022-10-13T16:53:14.267Z,14.73
2022-10-13T16:55:40.290Z,14.72
2022-10-13T16:58:02.195Z,14.71
2022-10-13T17:00:24.068Z,14.69
2022-10-13T17:02:45.940Z,14.68
2022-10-13T17:05:07.995Z,14.67
2022-10-13T17:07:29.873Z,14.66
2022-10-13T17:09:51.849Z,14.63
2022-10-13T17:12:13.660Z,14.62
2022-10-13T17:14:35.536Z,14.60
2022-10-13T17:16:58.145Z,14.55
2022-10-13T17:19:20.233Z,14.52
2022-10-13T17:21:43.471Z,14.50
2022-10-13T17:24:05.692Z,14.49
2022-10-13T17:26:28.531Z,14.46
2022-10-13T17:28:50.747Z,14.44
2022-10-13T17:31:15.645Z,14.42
2022-10-13T17:33:39.489Z,14.40
2022-10-13T17:36:12.632Z,14.38
2022-10-13T17:38:35.270Z,14.36
2022-10-13T17:41:07.909Z,14.34
2022-10-13T17:43:34.555Z,14.31
2022-10-13T17:46:34.378Z,14.30
2022-10-13T17:48:51.162Z,14.30
2022-10-13T17:51:17.505Z,14.30
2022-10-13T17:53:41.966Z,14.32
2022-10-13T17:56:13.648Z,14.32
2022-10-13T17:58:37.529Z,14.33
2022-10-13T18:01:13.088Z,14.32
2022-10-13T18:03:37.472Z,14.32
2022-10-13T18:05:59.330Z,14.33
2022-10-13T18:08:21.339Z,14.33
2022-10-13T18:11:07.010Z,14.33
2022-10-13T18:13:25.209Z,14.34
2022-10-13T18:15:47.023Z,14.33
2022-10-13T18:18:10.991Z,14.32
2022-10-13T18:20:36.957Z,14.31
2022-10-13T18:22:59.575Z,14.31
2022-10-13T18:25:22.757Z,14.31
2022-10-13T18:27:44.514Z,14.34
2022-10-13T18:30:07.161Z,14.36
2022-10-13T18:32:31.206Z,14.35
2022-10-13T18:34:56.371Z,14.37
2022-10-13T18:37:18.325Z,14.35
2022-10-13T18:39:40.842Z,14.37
2022-10-13T18:42:02.648Z,14.35
2022-10-13T18:44:31.053Z,14.35
2022-10-13T18:46:54.993Z,14.35
2022-10-13T18:49:19.149Z,14.33
2022-10-13T18:51:41.590Z,14.34
2022-10-13T18:54:05.116Z,14.34
2022-10-13T18:56:30.428Z,14.33
2022-10-13T18:58:59.278Z,14.33
2022-10-13T19:01:24.232Z,14.32
2022-10-13T19:03:47.145Z,14.28
2022-10-13T19:06:13.011Z,14.27
2022-10-13T19:08:37.347Z,14.27
2022-10-13T19:10:59.342Z,14.28
2022-10-13T19:13:21.196Z,14.27
2022-10-13T19:15:43.347Z,14.27
2022-10-13T19:18:06.284Z,14.27
2022-10-13T19:20:28.142Z,14.24
2022-10-13T19:22:53.558Z,14.24
2022-10-13T19:25:15.901Z,14.23
2022-10-13T19:27:37.796Z,14.22
2022-10-13T19:29:59.766Z,14.21
2022-10-13T19:32:21.667Z,14.20
2022-10-13T19:34:43.471Z,14.19
2022-10-13T19:37:07.430Z,14.17
2022-10-13T19:39:29.375Z,14.16
2022-10-13T19:41:56.345Z,14.13
2022-10-13T19:44:20.116Z,14.12
2022-10-13T19:46:46.866Z,14.12
2022-10-13T19:49:10.639Z,14.12
2022-10-13T19:51:37.401Z,14.13
2022-10-13T19:53:59.206Z,14.14
2022-10-13T19:56:34.139Z,14.16
2022-10-13T19:58:55.870Z,14.15
2022-10-13T20:01:19.098Z,14.13
2022-10-13T20:03:41.085Z,14.16
2022-10-13T20:06:07.108Z,14.17
2022-10-13T20:08:33.395Z,14.17
2022-10-13T20:10:56.549Z,14.15
2022-10-13T20:13:18.329Z,14.14
2022-10-13T20:15:43.750Z,14.11
2022-10-13T20:18:06.722Z,14.09
2022-10-13T20:20:28.859Z,14.11
2022-10-13T20:22:52.721Z,14.10
2022-10-13T20:25:15.931Z,14.11
2022-10-13T20:27:37.812Z,14.11
2022-10-13T20:29:59.914Z,14.12
2022-10-13T20:32:22.070Z,14.14
2022-10-13T20:34:44.558Z,14.16
2022-10-13T20:37:06.393Z,14.15
2022-10-13T20:39:28.227Z,14.17
2022-10-13T20:41:50.037Z,14.17
2022-10-13T20:44:12.292Z,14.17
2022-10-13T20:46:34.243Z,14.18
2022-10-13T20:49:13.081Z,14.19
2022-10-13T20:51:35.721Z,14.20
2022-10-13T20:53:57.952Z,14.19
2022-10-13T20:56:24.359Z,14.20
2022-10-13T20:58:47.518Z,14.18
2022-10-13T21:01:09.739Z,14.18
2022-10-13T21:03:31.611Z,14.18
2022-10-13T21:06:03.858Z,14.18
2022-10-13T21:08:25.654Z,14.19
2022-10-13T21:10:48.576Z,14.21
2022-10-13T21:13:15.365Z,14.20
2022-10-13T21:15:40.050Z,14.21
2022-10-13T21:18:01.827Z,14.20
2022-10-13T21:20:24.013Z,14.21
2022-10-13T21:22:45.880Z,14.21
2022-10-13T21:25:08.391Z,14.19
2022-10-13T21:27:30.200Z,14.19
2022-10-13T21:29:51.965Z,14.17
2022-10-13T21:32:13.852Z,14.17
2022-10-13T21:34:38.984Z,14.17
2022-10-13T21:37:00.749Z,14.17
2022-10-13T21:39:22.492Z,14.15
2022-10-13T21:41:44.383Z,14.15
2022-10-13T21:44:06.199Z,14.16
2022-10-13T21:46:32.970Z,14.16
2022-10-13T21:48:58.643Z,14.15
2022-10-13T21:51:29.266Z,14.16
2022-10-13T21:53:54.743Z,14.14
2022-10-13T21:56:17.318Z,14.15
2022-10-13T21:58:39.313Z,14.15
2022-10-13T22:01:03.839Z,14.15
2022-10-13T22:03:25.676Z,14.12
2022-10-13T22:05:47.439Z,14.09
2022-10-13T22:08:09.229Z,14.08
2022-10-13T22:10:31.021Z,14.07
2022-10-13T22:12:52.768Z,14.06
2022-10-13T22:15:14.820Z,14.06
2022-10-13T22:17:36.595Z,14.03
2022-10-13T22:20:00.961Z,13.98
2022-10-13T22:22:25.357Z,13.93
2022-10-13T22:24:49.246Z,13.91
2022-10-13T22:27:11.046Z,13.90
2022-10-13T22:29:32.905Z,13.89
2022-10-13T22:32:00.017Z,13.89
2022-10-13T22:34:21.948Z,13.88
2022-10-13T22:36:45.215Z,13.87
2022-10-13T22:39:07.408Z,13.86
2022-10-13T22:41:29.703Z,13.84
2022-10-13T22:43:57.778Z,13.81
2022-10-13T22:46:23.345Z,13.78
2022-10-13T22:48:45.624Z,13.75
2022-10-13T22:51:10.183Z,13.77
2022-10-13T22:53:33.974Z,13.76
2022-10-13T22:55:56.056Z,13.70
2022-10-13T22:58:17.821Z,13.68
2022-10-13T23:00:40.293Z,13.67
2022-10-13T23:03:03.300Z,13.69
2022-10-13T23:05:25.189Z,13.69
2022-10-13T23:07:47.004Z,13.69
2022-10-13T23:10:09.499Z,13.68
2022-10-13T23:12:32.343Z,13.65
2022-10-13T23:14:54.165Z,13.65
2022-10-13T23:17:16.103Z,13.66
2022-10-13T23:19:37.970Z,13.67
2022-10-13T23:21:59.758Z,13.69
2022-10-13T23:24:21.762Z,13.70
2022-10-13T23:26:43.666Z,13.73
2022-10-13T23:29:05.661Z,13.73
2022-10-13T23:31:28.447Z,13.73
2022-10-13T23:33:51.342Z,13.75
2022-10-13T23:36:23.445Z,13.77
2022-10-13T23:38:45.970Z,13.77
2022-10-13T23:41:12.102Z,13.77
2022-10-13T23:43:35.773Z,13.77
2022-10-13T23:45:57.594Z,13.76
2022-10-13T23:48:19.369Z,13.74
2022-10-13T23:50:41.211Z,13.77
2022-10-13T23:53:04.385Z,13.77
2022-10-13T23:55:26.244Z,13.76
2022-10-13T23:57:48.221Z,13.75
